Time;durP1;ratioP1;P1;durP2;ratioP2;P2;SDS_P1;SDS_P2;PMS_P1;PMS_P2;Temp;Humidity;BMP_temperature;BMP_pressure;BME280_temperature;BME280_humidity;BME280_pressure;Samples;Min_cycle;Max_cycle;Signal;HPM_P1;HPM_P2
2022/11/08 00:03:29;;;;;;;;;;;;;;;9.94;99.92;97796.44;107651;1270;60469;-72
2022/11/08 00:14:26;;;;;;;;;;;;;;;9.93;99.02;97791.79;107605;1267;60638;-72
2022/11/08 00:16:57;;;;;;;;;;;;;;;9.93;98.22;97792.48;107657;1270;60527;-72
2022/11/08 00:19:27;;;;;;;;;;;;;;;9.91;97.89;97794.30;107649;1270;72031;-71
2022/11/08 00:21:58;;;;;;;;;;;;;;;9.90;99.02;97793.05;107672;1269;69397;-71
2022/11/08 00:24:28;;;;;;;;;;;;;;;9.87;99.50;97793.89;107637;1269;69320;-71
2022/11/08 00:26:57;;;;;;;;;;;;;;;9.85;98.46;97791.25;107659;1269;60516;-71
2022/11/08 00:29:27;;;;;;;;;;;;;;;9.82;98.14;97790.40;107666;1268;60532;-71
2022/11/08 00:31:57;;;;;;;;;;;;;;;9.82;99.44;97789.02;107720;1264;73023;-71
2022/11/08 00:34:27;;;;;;;;;;;;;;;9.83;99.28;97788.08;107629;1267;68746;-72
2022/11/08 00:36:57;;;;;;;;;;;;;;;9.80;96.01;97788.61;107625;1269;69291;-72
2022/11/08 00:39:27;;;;;;;;;;;;;;;9.76;96.92;97785.59;107647;1268;60521;-72
2022/11/08 00:41:57;;;;;;;;;;;;;;;9.73;97.09;97786.83;107682;1268;60533;-72
2022/11/08 00:44:27;;;;;;;;;;;;;;;9.68;96.99;97786.38;107663;1269;72075;-71
2022/11/08 00:46:57;;;;;;;;;;;;;;;9.66;97.97;97789.17;107660;1268;69239;-71
2022/11/08 00:49:26;;;;;;;;;;;;;;;9.64;98.52;97789.63;107613;1268;69274;-72
2022/11/08 00:51:56;;;;;;;;;;;;;;;9.64;98.81;97787.55;107649;1268;60558;-71
2022/11/08 00:54:26;;;;;;;;;;;;;;;9.63;98.96;97787.38;107617;1270;60532;-73
2022/11/08 00:56:57;;;;;;;;;;;;;;;9.63;97.72;97786.90;107675;1267;72251;-72
2022/11/08 00:59:26;;;;;;;;;;;;;;;9.63;97.44;97785.01;107620;1268;68435;-72
2022/11/08 01:01:56;;;;;;;;;;;;;;;9.64;97.86;97786.98;107663;1268;69209;-73
2022/11/08 01:04:27;;;;;;;;;;;;;;;9.65;99.95;97783.80;107655;1269;60511;-72
2022/11/08 01:06:56;;;;;;;;;;;;;;;9.66;99.91;97783.94;107659;1268;60949;-72
2022/11/08 01:09:27;;;;;;;;;;;;;;;9.66;98.95;97782.86;107648;1269;72229;-73
2022/11/08 01:11:56;;;;;;;;;;;;;;;9.65;99.92;97781.70;107683;1268;68813;-72
2022/11/08 01:14:27;;;;;;;;;;;;;;;9.64;98.86;97784.05;107655;1269;69135;-72
2022/11/08 01:16:57;;;;;;;;;;;;;;;9.64;97.82;97785.30;107607;1265;60556;-72
2022/11/08 01:19:26;;;;;;;;;;;;;;;9.62;98.09;97783.30;107655;1270;60473;-71
2022/11/08 01:21:55;;;;;;;;;;;;;;;9.60;97.70;97782.36;107683;1265;72735;-71
2022/11/08 01:24:25;;;;;;;;;;;;;;;9.59;98.25;97782.98;107666;1266;69405;-71
2022/11/08 01:26:54;;;;;;;;;;;;;;;9.60;99.88;97783.81;107648;1264;69277;-71
2022/11/08 01:29:23;;;;;;;;;;;;;;;9.61;100.00;97784.75;107700;1268;61002;-72
2022/11/08 01:31:53;;;;;;;;;;;;;;;9.62;100.00;97785.07;107694;1268;60528;-71
2022/11/08 01:34:23;;;;;;;;;;;;;;;9.61;99.66;97783.90;107645;1267;72660;-71
2022/11/08 01:36:52;;;;;;;;;;;;;;;9.59;98.93;97786.25;107658;1266;68041;-72
2022/11/08 01:39:24;;;;;;;;;;;;;;;9.57;98.68;97787.09;107621;1271;69196;-72
2022/11/08 01:41:53;;;;;;;;;;;;;;;9.57;99.82;97787.45;107701;1271;60514;-71
2022/11/08 01:44:24;;;;;;;;;;;;;;;9.57;100.00;97787.14;107687;1268;60483;-72
2022/11/08 01:46:55;;;;;;;;;;;;;;;9.56;100.00;97786.45;107636;1268;70316;-72
2022/11/08 01:49:35;;;;;;;;;;;;;;;9.56;100.00;97789.42;107658;1269;69240;-72
2022/11/08 01:52:11;;;;;;;;;;;;;;;9.55;100.00;97791.39;107665;1268;69358;-72
2022/11/08 01:54:44;;;;;;;;;;;;;;;9.56;100.00;97793.25;107700;1268;60905;-72
2022/11/08 01:57:15;;;;;;;;;;;;;;;9.55;100.00;97793.30;107662;1268;60503;-72
2022/11/08 01:59:48;;;;;;;;;;;;;;;9.55;100.00;97791.73;107702;1268;71365;-72
2022/11/08 02:02:18;;;;;;;;;;;;;;;9.56;100.00;97790.84;107668;1264;69196;-72
2022/11/08 02:04:48;;;;;;;;;;;;;;;9.56;100.00;97794.15;107643;1265;68525;-72
2022/11/08 02:07:19;;;;;;;;;;;;;;;9.57;100.00;97793.06;107626;1271;60577;-72
2022/11/08 02:09:50;;;;;;;;;;;;;;;9.58;100.00;97788.66;107641;1270;60511;-72
2022/11/08 02:12:20;;;;;;;;;;;;;;;9.59;100.00;97787.32;107660;1271;71904;-72
2022/11/08 02:14:50;;;;;;;;;;;;;;;9.61;99.99;97787.39;107624;1268;68422;-72
2022/11/08 02:17:19;;;;;;;;;;;;;;;9.62;99.84;97789.24;107709;1269;68830;-71
2022/11/08 02:19:50;;;;;;;;;;;;;;;9.63;99.82;97792.51;107659;1268;60531;-72
2022/11/08 02:22:30;;;;;;;;;;;;;;;9.63;99.40;97794.02;107660;1267;60524;-72
2022/11/08 02:25:00;;;;;;;;;;;;;;;9.64;99.34;97794.13;107680;1268;71429;-72
2022/11/08 02:27:29;;;;;;;;;;;;;;;9.65;99.29;97797.73;107684;1264;69215;-72
2022/11/08 02:29:59;;;;;;;;;;;;;;;9.66;99.03;97795.60;107635;1269;68349;-72
2022/11/08 02:32:39;;;;;;;;;;;;;;;9.66;98.81;97798.73;107670;1268;60540;-72
2022/11/08 02:35:14;;;;;;;;;;;;;;;9.67;98.07;97799.52;107661;1265;60480;-72
2022/11/08 02:37:44;;;;;;;;;;;;;;;9.67;98.14;97799.86;107641;1270;72069;-72
2022/11/08 02:40:14;;;;;;;;;;;;;;;9.68;97.92;97795.98;107643;1270;69018;-72
2022/11/08 02:42:44;;;;;;;;;;;;;;;9.69;98.52;97803.05;107546;1271;69224;-72
2022/11/08 02:45:14;;;;;;;;;;;;;;;9.71;99.89;97802.44;107633;1266;60567;-72
2022/11/08 02:47:45;;;;;;;;;;;;;;;9.74;100.00;97804.18;107594;1269;60522;-72
2022/11/08 02:50:15;;;;;;;;;;;;;;;9.76;100.00;97804.05;107678;1270;72495;-74
2022/11/08 02:52:45;;;;;;;;;;;;;;;9.78;100.00;97807.59;107677;1270;69192;-73
2022/11/08 02:55:15;;;;;;;;;;;;;;;9.79;100.00;97804.02;107658;1269;69658;-73
2022/11/08 02:57:45;;;;;;;;;;;;;;;9.80;100.00;97807.05;107649;1268;60614;-73
2022/11/08 03:00:14;;;;;;;;;;;;;;;9.80;100.00;97803.23;107651;1268;60488;-73
2022/11/08 03:02:44;;;;;;;;;;;;;;;9.80;100.00;97804.80;107662;1268;72178;-73
2022/11/08 03:05:14;;;;;;;;;;;;;;;9.79;100.00;97806.45;107663;1269;69345;-72
2022/11/08 03:07:44;;;;;;;;;;;;;;;9.78;100.00;97809.77;107633;1270;69745;-73
2022/11/08 03:10:13;;;;;;;;;;;;;;;9.78;99.78;97814.18;107667;1268;60595;-72
2022/11/08 03:12:43;;;;;;;;;;;;;;;9.76;99.74;97812.52;107649;1265;60527;-72
2022/11/08 03:15:14;;;;;;;;;;;;;;;9.76;99.41;97812.36;107599;1265;72234;-70
2022/11/08 03:17:44;;;;;;;;;;;;;;;9.76;99.05;97811.53;107626;1266;69250;-72
2022/11/08 03:20:15;;;;;;;;;;;;;;;9.75;99.17;97816.45;107621;1270;69298;-72
2022/11/08 03:22:44;;;;;;;;;;;;;;;9.73;100.00;97816.02;107620;1270;60605;-72
2022/11/08 03:25:14;;;;;;;;;;;;;;;9.72;100.00;97813.15;107700;1269;60459;-72
2022/11/08 03:27:44;;;;;;;;;;;;;;;9.72;100.00;97815.77;107650;1270;72706;-72
2022/11/08 03:30:13;;;;;;;;;;;;;;;9.72;99.59;97814.23;107649;1270;69245;-72
2022/11/08 03:32:45;;;;;;;;;;;;;;;9.69;98.84;97812.05;107669;1269;69907;-72
2022/11/08 03:35:15;;;;;;;;;;;;;;;9.67;99.03;97815.69;107654;1268;60527;-72
2022/11/08 03:37:54;;;;;;;;;;;;;;;9.65;98.92;97812.16;107674;1268;60543;-72
2022/11/08 03:40:23;;;;;;;;;;;;;;;9.65;99.99;97815.46;107650;1268;72885;-72
2022/11/08 03:42:55;;;;;;;;;;;;;;;9.68;100.00;97812.52;107670;1268;68444;-73
2022/11/08 03:45:24;;;;;;;;;;;;;;;9.70;100.00;97812.23;107642;1269;69293;-72
2022/11/08 03:47:54;;;;;;;;;;;;;;;9.71;100.00;97811.45;107620;1266;60497;-72
2022/11/08 03:50:23;;;;;;;;;;;;;;;9.74;100.00;97815.14;107679;1272;60550;-72
2022/11/08 03:52:53;;;;;;;;;;;;;;;9.75;100.00;97812.98;107714;1270;73192;-73
2022/11/08 03:55:24;;;;;;;;;;;;;;;9.75;100.00;97812.95;107640;1270;69066;-72
2022/11/08 03:57:53;;;;;;;;;;;;;;;9.77;100.00;97809.90;107633;1269;70375;-72
2022/11/08 04:00:24;;;;;;;;;;;;;;;9.77;100.00;97810.89;107677;1270;60647;-72
2022/11/08 04:02:54;;;;;;;;;;;;;;;9.79;100.00;97814.62;107675;1270;60570;-72
2022/11/08 04:05:23;;;;;;;;;;;;;;;9.79;100.00;97810.95;107755;1270;71529;-71
2022/11/08 04:07:53;;;;;;;;;;;;;;;9.80;100.00;97810.41;107760;1270;69822;-72
2022/11/08 04:10:21;;;;;;;;;;;;;;;9.80;100.00;97808.79;107665;1269;69303;-72
2022/11/08 04:15:38;;;;;;;;;;;;;;;9.83;100.00;97807.92;107640;1271;60534;-72
2022/11/08 04:23:47;;;;;;;;;;;;;;;9.84;100.00;97816.23;107718;1269;68497;-72
2022/11/08 04:26:17;;;;;;;;;;;;;;;9.85;100.00;97818.77;107655;1269;60935;-72
2022/11/08 04:28:47;;;;;;;;;;;;;;;9.83;100.00;97818.84;107639;1268;60526;-72
2022/11/08 04:31:17;;;;;;;;;;;;;;;9.83;100.00;97818.04;107722;1266;72826;-72
2022/11/08 04:33:46;;;;;;;;;;;;;;;9.82;100.00;97816.67;107653;1270;68439;-71
2022/11/08 04:36:16;;;;;;;;;;;;;;;9.82;100.00;97819.62;107645;1269;69951;-71
2022/11/08 04:38:49;;;;;;;;;;;;;;;9.82;100.00;97821.71;107631;1269;60935;-71
2022/11/08 04:41:19;;;;;;;;;;;;;;;9.80;100.00;97818.75;107687;1269;60502;-71
2022/11/08 04:43:49;;;;;;;;;;;;;;;9.77;100.00;97822.80;107731;1270;72283;-71
2022/11/08 04:46:19;;;;;;;;;;;;;;;9.75;100.00;97825.30;107698;1264;69197;-71
2022/11/08 04:48:52;;;;;;;;;;;;;;;9.74;100.00;97831.13;107639;1266;68290;-71
2022/11/08 04:51:22;;;;;;;;;;;;;;;9.74;100.00;97832.34;107660;1269;60520;-71
2022/11/08 04:53:52;;;;;;;;;;;;;;;9.75;100.00;97833.34;107742;1269;60466;-72
2022/11/08 04:56:21;;;;;;;;;;;;;;;9.76;100.00;97837.81;107679;1268;71048;-72
2022/11/08 04:58:52;;;;;;;;;;;;;;;9.77;100.00;97835.48;107675;1268;69143;-72
2022/11/08 05:01:22;;;;;;;;;;;;;;;9.78;100.00;97840.11;107602;1268;69906;-71
2022/11/08 05:03:52;;;;;;;;;;;;;;;9.78;100.00;97840.09;107644;1268;60579;-72
2022/11/08 05:06:26;;;;;;;;;;;;;;;9.79;100.00;97843.66;107676;1264;60463;-71
2022/11/08 05:08:55;;;;;;;;;;;;;;;9.80;100.00;97846.93;107651;1270;71308;-72
2022/11/08 05:11:26;;;;;;;;;;;;;;;9.81;100.00;97846.35;107641;1272;68434;-72
2022/11/08 05:13:56;;;;;;;;;;;;;;;9.82;100.00;97853.56;107672;1269;70295;-71
2022/11/08 05:16:26;;;;;;;;;;;;;;;9.84;100.00;97856.62;107648;1269;60537;-72
2022/11/08 05:18:55;;;;;;;;;;;;;;;9.84;100.00;97854.31;107638;1269;60533;-71
2022/11/08 05:24:13;;;;;;;;;;;;;;;9.81;100.00;97854.71;107651;1269;69818;-72
2022/11/08 05:26:43;;;;;;;;;;;;;;;9.79;100.00;97859.16;107669;1266;69237;-72
2022/11/08 05:29:13;;;;;;;;;;;;;;;9.77;100.00;97861.55;107698;1268;60558;-72
2022/11/08 05:31:42;;;;;;;;;;;;;;;9.77;100.00;97861.77;107646;1269;60561;-73
2022/11/08 05:34:11;;;;;;;;;;;;;;;9.75;100.00;97865.85;107673;1269;72284;-73
2022/11/08 05:36:40;;;;;;;;;;;;;;;9.75;100.00;97868.97;107669;1269;69254;-74
2022/11/08 05:39:09;;;;;;;;;;;;;;;9.76;100.00;97875.58;107655;1270;69488;-74
2022/11/08 05:41:39;;;;;;;;;;;;;;;9.75;100.00;97874.41;107713;1273;60544;-73
2022/11/08 05:44:08;;;;;;;;;;;;;;;9.75;100.00;97878.92;107660;1269;60557;-73
2022/11/08 05:46:38;;;;;;;;;;;;;;;9.76;100.00;97880.08;107660;1269;72419;-73
2022/11/08 05:49:07;;;;;;;;;;;;;;;9.77;100.00;97881.41;107651;1269;68629;-73
2022/11/08 05:51:36;;;;;;;;;;;;;;;9.79;100.00;97881.45;107622;1269;69879;-73
2022/11/08 05:54:06;;;;;;;;;;;;;;;9.80;100.00;97882.95;107656;1270;60492;-73
2022/11/08 05:56:35;;;;;;;;;;;;;;;9.81;100.00;97884.65;107672;1266;60535;-73
2022/11/08 05:59:04;;;;;;;;;;;;;;;9.82;100.00;97889.10;107653;1269;72798;-74
2022/11/08 06:01:33;;;;;;;;;;;;;;;9.83;100.00;97894.80;107653;1268;69018;-73
2022/11/08 06:04:02;;;;;;;;;;;;;;;9.83;100.00;97896.16;107627;1266;68468;-73
2022/11/08 06:06:31;;;;;;;;;;;;;;;9.84;100.00;97894.53;107637;1269;60559;-73
2022/11/08 06:09:00;;;;;;;;;;;;;;;9.84;100.00;97894.70;107668;1266;60464;-73
2022/11/08 06:11:29;;;;;;;;;;;;;;;9.85;100.00;97899.03;107664;1269;72071;-74
2022/11/08 06:13:57;;;;;;;;;;;;;;;9.86;100.00;97896.71;107675;1268;69193;-74
2022/11/08 06:16:27;;;;;;;;;;;;;;;9.86;100.00;97896.34;107630;1269;69269;-73
2022/11/08 06:18:56;;;;;;;;;;;;;;;9.88;100.00;97894.98;107630;1269;60589;-74
2022/11/08 06:21:26;;;;;;;;;;;;;;;9.89;100.00;97897.02;107657;1268;60534;-74
2022/11/08 06:23:55;;;;;;;;;;;;;;;9.91;100.00;97896.34;107642;1270;71410;-74
2022/11/08 06:26:23;;;;;;;;;;;;;;;9.94;100.00;97898.60;107652;1261;68728;-73
2022/11/08 06:28:51;;;;;;;;;;;;;;;9.97;100.00;97898.41;107667;1270;68457;-74
2022/11/08 06:31:20;;;;;;;;;;;;;;;10.00;100.00;97904.85;107635;1269;60560;-77
2022/11/08 06:33:49;;;;;;;;;;;;;;;10.02;100.00;97904.55;107639;1267;60477;-77
2022/11/08 06:36:19;;;;;;;;;;;;;;;10.05;100.00;97903.50;107629;1269;72853;-76
2022/11/08 06:38:52;;;;;;;;;;;;;;;10.08;100.00;97908.37;107670;1269;69047;-76
2022/11/08 06:41:22;;;;;;;;;;;;;;;10.11;100.00;97907.85;107666;1269;69919;-78
2022/11/08 06:43:53;;;;;;;;;;;;;;;10.13;100.00;97906.11;107790;1270;60550;-77
2022/11/08 06:46:22;;;;;;;;;;;;;;;10.19;100.00;97904.20;107733;1269;60489;-76
2022/11/08 06:48:51;;;;;;;;;;;;;;;10.24;100.00;97901.83;107710;1268;72164;-75
2022/11/08 06:51:20;;;;;;;;;;;;;;;10.28;100.00;97900.70;107716;1270;68386;-76
2022/11/08 06:53:50;;;;;;;;;;;;;;;10.32;100.00;97899.38;107650;1270;68124;-76
2022/11/08 06:56:18;;;;;;;;;;;;;;;10.35;100.00;97903.04;107668;1271;60577;-75
2022/11/08 06:58:47;;;;;;;;;;;;;;;10.37;100.00;97907.41;107680;1269;60553;-76
2022/11/08 07:01:17;;;;;;;;;;;;;;;10.35;100.00;97907.02;107689;1264;72164;-76
2022/11/08 07:03:46;;;;;;;;;;;;;;;10.34;99.82;97908.70;107678;1269;69930;-76
2022/11/08 07:06:14;;;;;;;;;;;;;;;10.34;100.00;97905.51;107618;1266;68771;-70
2022/11/08 07:08:43;;;;;;;;;;;;;;;10.40;99.99;97905.65;107624;1266;60527;-72
2022/11/08 07:11:11;;;;;;;;;;;;;;;10.45;99.86;97900.80;107680;1266;60511;-71
2022/11/08 07:13:42;;;;;;;;;;;;;;;10.50;99.75;97904.13;107627;1269;72035;-72
2022/11/08 07:16:11;;;;;;;;;;;;;;;10.57;99.68;97902.84;107678;1268;68412;-72
2022/11/08 07:18:39;;;;;;;;;;;;;;;10.62;100.00;97900.22;107651;1269;69214;-73
2022/11/08 07:21:08;;;;;;;;;;;;;;;10.66;99.86;97901.91;107660;1269;60548;-72
2022/11/08 07:23:37;;;;;;;;;;;;;;;10.68;99.71;97903.98;107627;1271;60510;-72
2022/11/08 07:26:09;;;;;;;;;;;;;;;10.74;99.58;97909.38;107647;1269;72280;-73
2022/11/08 07:28:37;;;;;;;;;;;;;;;10.78;99.37;97908.60;107132;1269;691834;-72
2022/11/08 07:31:07;;;;;;;;;;;;;;;10.78;99.17;97910.67;107599;1269;68789;-72
2022/11/08 07:33:36;;;;;;;;;;;;;;;10.81;99.35;97912.73;107672;1266;60632;-72
2022/11/08 07:36:05;;;;;;;;;;;;;;;10.85;99.10;97910.61;107647;1268;60513;-72
2022/11/08 07:38:33;;;;;;;;;;;;;;;10.85;97.67;97914.08;107638;1268;72205;-72
2022/11/08 07:41:02;;;;;;;;;;;;;;;10.93;98.13;97917.19;107638;1268;67589;-72
2022/11/08 07:43:34;;;;;;;;;;;;;;;10.98;97.17;97916.88;107626;1266;69185;-72
2022/11/08 07:46:10;;;;;;;;;;;;;;;11.05;96.97;97920.27;107634;1269;60561;-72
2022/11/08 07:48:39;;;;;;;;;;;;;;;11.14;97.04;97921.40;107676;1269;60529;-72
2022/11/08 07:51:08;;;;;;;;;;;;;;;11.24;95.31;97922.31;107636;1269;71668;-72
2022/11/08 07:53:37;;;;;;;;;;;;;;;11.32;94.76;97921.41;107656;1269;69832;-72
2022/11/08 07:56:06;;;;;;;;;;;;;;;11.39;94.52;97918.64;107661;1269;68313;-72
2022/11/08 07:58:35;;;;;;;;;;;;;;;11.47;93.55;97918.81;107616;1269;60547;-72
2022/11/08 08:01:05;;;;;;;;;;;;;;;11.58;92.60;97918.21;107660;1268;60628;-74
2022/11/08 08:03:34;;;;;;;;;;;;;;;11.62;90.46;97919.69;107699;1269;72167;-73
2022/11/08 08:06:03;;;;;;;;;;;;;;;11.70;90.24;97917.36;107646;1268;69706;-72
2022/11/08 08:08:32;;;;;;;;;;;;;;;11.80;89.24;97920.40;107628;1269;68696;-72
2022/11/08 08:11:02;;;;;;;;;;;;;;;11.85;89.18;97911.83;107581;1266;60951;-72
2022/11/08 08:13:31;;;;;;;;;;;;;;;11.93;89.57;97913.05;107610;1264;60507;-72
2022/11/08 08:16:00;;;;;;;;;;;;;;;12.02;88.75;97914.30;107636;1266;72893;-72
2022/11/08 08:18:29;;;;;;;;;;;;;;;12.16;87.27;97916.45;107662;1268;69813;-71
2022/11/08 08:20:58;;;;;;;;;;;;;;;12.32;87.17;97916.02;107646;1269;68483;-73
2022/11/08 08:23:27;;;;;;;;;;;;;;;12.55;87.81;97916.64;107660;1270;60563;-73
2022/11/08 08:25:56;;;;;;;;;;;;;;;12.81;85.54;97917.35;107676;1270;60594;-73
2022/11/08 08:28:24;;;;;;;;;;;;;;;13.10;83.06;97920.09;107667;1268;72835;-74
2022/11/08 08:30:53;;;;;;;;;;;;;;;13.36;81.78;97922.86;107674;1269;69176;-72
2022/11/08 08:33:21;;;;;;;;;;;;;;;13.73;80.90;97921.23;107642;1270;69323;-73
2022/11/08 08:35:59;;;;;;;;;;;;;;;14.12;77.67;97923.45;107623;1269;60561;-72
2022/11/08 08:38:29;;;;;;;;;;;;;;;14.62;78.47;97921.96;107653;1269;60530;-72
2022/11/08 08:40:58;;;;;;;;;;;;;;;14.91;72.20;97920.59;107672;1269;71290;-72
2022/11/08 08:43:32;;;;;;;;;;;;;;;15.26;72.53;97921.77;107667;1270;69239;-72
2022/11/08 08:46:02;;;;;;;;;;;;;;;15.69;73.70;97917.39;107628;1269;69255;-72
2022/11/08 08:48:32;;;;;;;;;;;;;;;15.53;67.21;97918.41;107647;1270;60553;-72
2022/11/08 08:51:00;;;;;;;;;;;;;;;15.67;68.24;97917.91;107632;1268;60506;-73
2022/11/08 08:53:29;;;;;;;;;;;;;;;15.56;67.62;97918.73;107683;1266;72179;-73
2022/11/08 08:55:57;;;;;;;;;;;;;;;15.76;68.60;97918.79;107683;1266;68693;-72
2022/11/08 08:58:25;;;;;;;;;;;;;;;15.84;67.26;97918.96;107685;1269;69122;-73
2022/11/08 09:00:58;;;;;;;;;;;;;;;15.64;67.30;97920.33;107623;1268;60574;-73
2022/11/08 09:03:47;;;;;;;;;;;;;;;15.53;66.99;97920.89;107671;1269;60471;-73
2022/11/08 09:06:15;;;;;;;;;;;;;;;15.35;66.31;97922.94;107678;1269;71666;-73
2022/11/08 09:08:44;;;;;;;;;;;;;;;15.11;67.53;97928.23;107632;1266;69832;-72
2022/11/08 09:11:12;;;;;;;;;;;;;;;15.00;69.06;97928.31;107618;1266;67843;-73
2022/11/08 09:13:41;;;;;;;;;;;;;;;14.72;68.48;97926.56;107638;1268;60567;-72
2022/11/08 09:16:12;;;;;;;;;;;;;;;14.73;68.94;97926.98;107663;1269;60527;-72
2022/11/08 09:18:40;;;;;;;;;;;;;;;14.57;69.21;97924.80;107621;1270;71647;-72
2022/11/08 09:21:09;;;;;;;;;;;;;;;14.43;69.71;97928.92;107667;1269;69210;-72
2022/11/08 09:23:40;;;;;;;;;;;;;;;14.39;71.19;97924.14;107616;1266;69994;-73
2022/11/08 09:26:09;;;;;;;;;;;;;;;14.28;71.41;97926.05;107650;1267;60582;-73
2022/11/08 09:28:37;;;;;;;;;;;;;;;14.20;71.76;97926.83;107667;1270;60507;-73
2022/11/08 09:31:08;;;;;;;;;;;;;;;14.27;71.84;97926.11;107642;1269;72251;-73
2022/11/08 09:33:38;;;;;;;;;;;;;;;14.12;71.44;97926.61;107647;1268;69678;-72
2022/11/08 09:36:07;;;;;;;;;;;;;;;13.97;72.69;97925.85;107663;1270;69559;-72
2022/11/08 09:38:36;;;;;;;;;;;;;;;13.76;73.68;97928.18;107655;1270;60542;-73
2022/11/08 09:41:16;;;;;;;;;;;;;;;13.63;74.96;97930.64;107620;1270;60507;-73
2022/11/08 09:44:20;;;;;;;;;;;;;;;13.62;74.89;97933.79;107659;1268;71703;-73
2022/11/08 09:46:49;;;;;;;;;;;;;;;13.65;74.39;97933.41;107437;1273;69675;-73
2022/11/08 09:49:25;;;;;;;;;;;;;;;13.69;74.75;97939.98;107633;1271;69275;-72
2022/11/08 09:51:53;;;;;;;;;;;;;;;13.66;74.63;97935.09;107667;1266;60469;-73
2022/11/08 09:54:30;;;;;;;;;;;;;;;13.58;74.71;97937.48;107668;1269;60599;-73
2022/11/08 09:57:04;;;;;;;;;;;;;;;13.42;75.54;97941.16;107660;1267;71272;-73
2022/11/08 09:59:40;;;;;;;;;;;;;;;13.25;76.11;97944.73;107647;1269;68219;-72
2022/11/08 10:02:14;;;;;;;;;;;;;;;13.24;76.07;97943.19;107647;1270;69240;-73
2022/11/08 10:04:46;;;;;;;;;;;;;;;13.30;76.78;97941.38;107646;1268;60522;-73
2022/11/08 10:07:22;;;;;;;;;;;;;;;13.26;75.21;97936.61;107674;1268;60601;-73
2022/11/08 10:09:57;;;;;;;;;;;;;;;13.27;75.19;97936.52;107682;1268;72000;-73
2022/11/08 10:12:35;;;;;;;;;;;;;;;13.41;75.23;97933.84;107637;1269;69934;-72
2022/11/08 10:15:07;;;;;;;;;;;;;;;13.51;72.82;97931.73;107643;1268;69939;-73
2022/11/08 10:17:35;;;;;;;;;;;;;;;13.58;72.61;97923.30;107631;1270;60552;-73
2022/11/08 10:20:23;;;;;;;;;;;;;;;13.67;71.47;97922.10;107634;1269;60509;-73
2022/11/08 10:23:10;;;;;;;;;;;;;;;13.80;72.47;97920.73;107660;1267;71370;-73
2022/11/08 10:25:44;;;;;;;;;;;;;;;13.93;72.36;97917.26;107636;1270;69110;-73
2022/11/08 10:28:15;;;;;;;;;;;;;;;13.90;72.19;97922.24;107602;1268;69106;-73
2022/11/08 10:30:47;;;;;;;;;;;;;;;13.74;73.63;97924.35;107677;1270;60497;-73
2022/11/08 10:33:19;;;;;;;;;;;;;;;13.71;73.70;97921.92;107668;1269;60494;-73
2022/11/08 10:36:08;;;;;;;;;;;;;;;13.71;73.35;97918.98;107659;1269;72203;-73
2022/11/08 10:38:56;;;;;;;;;;;;;;;13.74;73.21;97922.55;107669;1269;69691;-74
2022/11/08 10:41:37;;;;;;;;;;;;;;;13.82;72.21;97920.95;107635;1268;69195;-73
2022/11/08 10:44:11;;;;;;;;;;;;;;;13.85;72.42;97918.73;107671;1270;60585;-73
2022/11/08 10:46:54;;;;;;;;;;;;;;;13.87;72.13;97921.27;107673;1270;60538;-73
2022/11/08 10:49:26;;;;;;;;;;;;;;;13.87;71.62;97923.46;107667;1268;72768;-73
2022/11/08 10:51:56;;;;;;;;;;;;;;;13.77;72.08;97919.55;107639;1268;68239;-73
2022/11/08 10:54:40;;;;;;;;;;;;;;;13.71;72.00;97919.61;107660;1266;69747;-73
2022/11/08 10:57:10;;;;;;;;;;;;;;;13.61;71.99;97920.24;107639;1273;60581;-73
2022/11/08 10:59:40;;;;;;;;;;;;;;;13.50;72.11;97920.27;107677;1266;60604;-74
2022/11/08 11:02:17;;;;;;;;;;;;;;;13.46;72.00;97920.52;107688;1270;72673;-73
2022/11/08 11:04:46;;;;;;;;;;;;;;;13.40;70.97;97911.92;107648;1268;69136;-73
2022/11/08 11:07:24;;;;;;;;;;;;;;;13.40;71.82;97919.46;107613;1270;68512;-73
2022/11/08 11:09:53;;;;;;;;;;;;;;;13.41;72.23;97912.49;107683;1266;60527;-74
2022/11/08 11:12:22;;;;;;;;;;;;;;;13.37;72.05;97913.35;107702;1266;60522;-74
2022/11/08 11:14:57;;;;;;;;;;;;;;;13.42;73.29;97913.48;107663;1268;72165;-74
2022/11/08 11:17:29;;;;;;;;;;;;;;;13.32;74.28;97914.94;107682;1269;69191;-72
2022/11/08 11:20:03;;;;;;;;;;;;;;;13.11;75.33;97914.76;107630;1269;68377;-74
2022/11/08 11:22:32;;;;;;;;;;;;;;;12.87;76.42;97911.52;107651;1268;60521;-73
2022/11/08 11:25:06;;;;;;;;;;;;;;;12.82;76.60;97911.83;107610;1269;60505;-73
2022/11/08 11:27:36;;;;;;;;;;;;;;;12.64;77.45;97915.79;107647;1269;72047;-73
2022/11/08 11:30:23;;;;;;;;;;;;;;;12.56;77.39;97908.88;107690;1269;68405;-73
2022/11/08 11:33:00;;;;;;;;;;;;;;;12.50;77.98;97912.11;107639;1268;68527;-73
2022/11/08 11:35:35;;;;;;;;;;;;;;;12.47;77.71;97908.99;107653;1266;60530;-73
2022/11/08 11:38:07;;;;;;;;;;;;;;;12.46;78.52;97908.15;107687;1268;60496;-73
2022/11/08 11:40:43;;;;;;;;;;;;;;;12.47;78.94;97906.73;107648;1268;72093;-73
2022/11/08 11:43:25;;;;;;;;;;;;;;;12.39;79.08;97905.35;107673;1268;69622;-73
2022/11/08 11:45:59;;;;;;;;;;;;;;;12.28;79.32;97904.25;107630;1270;68463;-73
2022/11/08 11:48:29;;;;;;;;;;;;;;;12.14;80.39;97894.79;107679;1269;60510;-72
2022/11/08 11:50:57;;;;;;;;;;;;;;;12.15;80.45;97895.39;107651;1270;60535;-72
2022/11/08 11:53:37;;;;;;;;;;;;;;;12.18;81.23;97894.42;107655;1266;72832;-72
2022/11/08 11:56:13;;;;;;;;;;;;;;;12.14;81.57;97895.09;107680;1268;69016;-72
2022/11/08 11:58:45;;;;;;;;;;;;;;;12.20;80.98;97896.89;107665;1268;68346;-72
2022/11/08 12:01:33;;;;;;;;;;;;;;;12.15;81.13;97896.93;107658;1266;60532;-72
2022/11/08 12:04:17;;;;;;;;;;;;;;;12.03;81.96;97897.98;107689;1268;60510;-71
2022/11/08 12:07:21;;;;;;;;;;;;;;;11.94;82.54;97897.02;107667;1269;72845;-74
2022/11/08 12:09:50;;;;;;;;;;;;;;;12.01;82.26;97898.46;107433;1272;68095;-74
2022/11/08 12:12:18;;;;;;;;;;;;;;;11.96;82.83;97896.92;107549;1267;70059;-73
2022/11/08 12:14:54;;;;;;;;;;;;;;;11.98;82.50;97893.27;107632;1265;60487;-72
2022/11/08 12:17:29;;;;;;;;;;;;;;;11.98;83.15;97892.43;107657;1269;60544;-72
2022/11/08 12:20:03;;;;;;;;;;;;;;;12.03;82.96;97892.59;107654;1265;72176;-73
2022/11/08 12:22:37;;;;;;;;;;;;;;;12.05;82.70;97891.39;107629;1265;69156;-73
2022/11/08 12:25:06;;;;;;;;;;;;;;;12.06;82.92;97891.30;107658;1268;69344;-73
2022/11/08 12:27:48;;;;;;;;;;;;;;;12.09;83.12;97892.65;107632;1269;60567;-73
2022/11/08 12:30:19;;;;;;;;;;;;;;;12.20;82.69;97893.30;107653;1268;60465;-73
2022/11/08 12:33:06;;;;;;;;;;;;;;;12.30;82.09;97896.29;107651;1269;71361;-73
2022/11/08 12:35:55;;;;;;;;;;;;;;;12.41;81.81;97891.63;107622;1269;68706;-72
2022/11/08 12:38:36;;;;;;;;;;;;;;;12.63;81.22;97891.40;107671;1268;69281;-73
2022/11/08 12:41:11;;;;;;;;;;;;;;;12.99;80.21;97889.91;107678;1266;60599;-74
2022/11/08 12:44:10;;;;;;;;;;;;;;;13.53;78.04;97886.20;107713;1266;60534;-73
2022/11/08 12:46:57;;;;;;;;;;;;;;;13.80;76.79;97883.77;107669;1269;71661;-74
2022/11/08 12:49:46;;;;;;;;;;;;;;;14.07;76.52;97886.54;107708;1265;68685;-73
2022/11/08 12:52:26;;;;;;;;;;;;;;;14.29;74.36;97887.62;107639;1268;68787;-74
2022/11/08 12:55:03;;;;;;;;;;;;;;;14.32;73.73;97888.56;107666;1264;60911;-74
2022/11/08 12:57:32;;;;;;;;;;;;;;;14.34;73.54;97890.55;107652;1269;60509;-74
2022/11/08 13:00:03;;;;;;;;;;;;;;;14.37;73.15;97890.66;107634;1269;73108;-73
2022/11/08 13:02:34;;;;;;;;;;;;;;;14.44;72.88;97890.20;107665;1268;69040;-73
2022/11/08 13:05:19;;;;;;;;;;;;;;;15.06;71.28;97890.72;107649;1264;69425;-73
2022/11/08 13:07:56;;;;;;;;;;;;;;;15.57;66.60;97887.32;107664;1269;60576;-73
2022/11/08 13:10:42;;;;;;;;;;;;;;;15.41;65.50;97887.15;107670;1268;60510;-73
2022/11/08 13:13:13;;;;;;;;;;;;;;;15.26;66.21;97888.70;107664;1266;72261;-74
2022/11/08 13:16:03;;;;;;;;;;;;;;;15.18;66.76;97892.39;107677;1268;68420;-73
2022/11/08 13:18:33;;;;;;;;;;;;;;;15.07;67.67;97897.86;107664;1266;68200;-73
2022/11/08 13:21:21;;;;;;;;;;;;;;;14.95;67.46;97896.23;107640;1268;60506;-73
2022/11/08 13:23:50;;;;;;;;;;;;;;;14.56;67.82;97894.30;107675;1268;60542;-73